Time;durP1;ratioP1;P1;durP2;ratioP2;P2;SDS_P1;SDS_P2;PMS_P1;PMS_P2;Temp;Humidity;BMP_temperature;BMP_pressure;BME280_temperature;BME280_humidity;BME280_pressure;Samples;Min_cycle;Max_cycle;Signal;HPM_P1;HPM_P2
2023/07/11 00:00:43;;;;;;;2.80;1.03;;;23.60;65.40;;;;;;4994342;28;20577;-76
2023/07/11 00:03:10;;;;;;;4.30;1.50;;;23.60;66.20;;;;;;4987639;28;20684;-76
2023/07/11 00:05:36;;;;;;;3.20;1.37;;;23.60;65.80;;;;;;5011624;28;20609;-76
2023/07/11 00:08:02;;;;;;;3.97;1.20;;;23.60;66.20;;;;;;5013105;28;20566;-76
2023/07/11 00:10:29;;;;;;;2.57;1.30;;;23.60;66.90;;;;;;4995501;28;21411;-76
2023/07/11 00:12:55;;;;;;;2.53;1.13;;;23.50;67.30;;;;;;4978978;28;21196;-75
2023/07/11 00:15:21;;;;;;;4.40;1.30;;;23.50;68.00;;;;;;5010036;28;20612;-76
2023/07/11 00:17:48;;;;;;;2.97;1.03;;;23.40;69.40;;;;;;4993162;28;20728;-76
2023/07/11 00:20:15;;;;;;;2.30;1.40;;;23.40;68.70;;;;;;4992743;28;20601;-76
2023/07/11 00:22:42;;;;;;;3.03;1.33;;;23.30;69.20;;;;;;4993124;28;20629;-76
2023/07/11 00:25:09;;;;;;;7.00;1.30;;;23.30;69.80;;;;;;4993638;28;20738;-76
2023/07/11 00:27:36;;;;;;;3.83;1.20;;;23.30;70.50;;;;;;4991173;28;20705;-76
2023/07/11 00:30:03;;;;;;;2.40;1.10;;;23.20;70.30;;;;;;4992439;28;20582;-76
2023/07/11 00:32:29;;;;;;;3.47;1.27;;;23.20;71.70;;;;;;4992316;28;20938;-76
2023/07/11 00:34:55;;;;;;;2.07;1.10;;;23.20;71.50;;;;;;4996354;28;20574;-76
2023/07/11 00:37:20;;;;;;;3.73;1.40;;;23.20;72.40;;;;;;4975252;28;20676;-76
2023/07/11 00:39:46;;;;;;;3.33;1.30;;;23.10;72.10;;;;;;4991562;28;20179;-76
2023/07/11 00:42:12;;;;;;;3.17;1.27;;;23.10;72.90;;;;;;4991681;28;20179;-76
2023/07/11 00:44:53;;;;;;;3.30;1.17;;;23.10;73.60;;;;;;4974411;28;20186;-76
2023/07/11 00:47:20;;;;;;;2.07;1.00;;;23.10;73.60;;;;;;4992897;28;20654;-75
2023/07/11 00:49:47;;;;;;;3.03;1.47;;;23.00;73.50;;;;;;4993127;28;21211;-75
2023/07/11 00:52:16;;;;;;;3.97;1.73;;;23.00;74.80;;;;;;4991575;28;20690;-75
2023/07/11 00:54:46;;;;;;;3.40;1.10;;;23.00;75.50;;;;;;4991526;28;20688;-75
2023/07/11 00:57:12;;;;;;;6.23;1.27;;;22.90;75.40;;;;;;4991240;28;20684;-75
2023/07/11 00:59:38;;;;;;;2.87;1.10;;;22.90;77.10;;;;;;4991585;28;20593;-75
2023/07/11 01:02:09;;;;;;;3.10;1.30;;;22.90;77.00;;;;;;4992870;28;20884;-75
2023/07/11 01:04:36;;;;;;;2.67;1.20;;;22.80;77.60;;;;;;4975264;28;20183;-75
2023/07/11 01:07:03;;;;;;;2.07;1.07;;;22.80;78.50;;;;;;4991122;28;20626;-76
2023/07/11 01:09:29;;;;;;;2.80;1.03;;;22.80;78.60;;;;;;4994405;28;20967;-75
2023/07/11 01:11:58;;;;;;;5.00;1.50;;;22.70;78.30;;;;;;4976884;28;20640;-75
2023/07/11 01:14:25;;;;;;;4.57;1.20;;;22.70;79.80;;;;;;4974552;28;20547;-75
2023/07/11 01:17:28;;;;;;;3.13;1.20;;;22.70;79.20;;;;;;4992606;28;21241;-75
2023/07/11 01:19:56;;;;;;;3.80;1.03;;;22.70;79.60;;;;;;4975201;28;20700;-75
2023/07/11 01:22:24;;;;;;;5.60;1.00;;;22.70;80.30;;;;;;4990640;28;20594;-75
2023/07/11 01:24:52;;;;;;;3.10;1.20;;;22.60;80.70;;;;;;4990950;28;20586;-75
2023/07/11 01:27:19;;;;;;;2.17;1.00;;;22.60;80.90;;;;;;4974236;28;20610;-75
2023/07/11 01:29:50;;;;;;;2.83;1.10;;;22.60;81.30;;;;;;4991121;28;20954;-75
2023/07/11 01:32:17;;;;;;;2.50;1.20;;;22.50;83.00;;;;;;4974072;28;20574;-75
2023/07/11 01:34:42;;;;;;;3.23;1.67;;;22.50;83.00;;;;;;4990921;28;20609;-75
2023/07/11 01:37:09;;;;;;;2.23;1.20;;;22.50;83.10;;;;;;4958156;28;20610;-75
2023/07/11 01:39:35;;;;;;;6.53;1.60;;;22.50;84.10;;;;;;4974112;28;20179;-75
2023/07/11 01:42:01;;;;;;;4.63;1.30;;;22.40;85.20;;;;;;4974644;28;20605;-75
2023/07/11 01:44:28;;;;;;;3.90;1.10;;;22.40;85.90;;;;;;4990838;28;20614;-75
2023/07/11 01:46:54;;;;;;;3.23;1.53;;;22.30;85.90;;;;;;4998640;28;20601;-75
2023/07/11 01:49:20;;;;;;;2.17;1.10;;;22.30;86.00;;;;;;4991884;28;20570;-75
2023/07/11 01:51:46;;;;;;;3.13;1.03;;;22.30;86.70;;;;;;4990341;28;20582;-76
2023/07/11 01:54:13;;;;;;;1.90;0.93;;;22.30;87.40;;;;;;4989818;28;20585;-76
2023/07/11 01:56:38;;;;;;;2.10;1.07;;;22.20;87.30;;;;;;4989234;28;20646;-76
2023/07/11 01:59:06;;;;;;;1.70;1.00;;;22.20;89.30;;;;;;4973784;28;20611;-76
2023/07/11 02:01:32;;;;;;;2.57;1.10;;;22.20;90.00;;;;;;4990139;28;20571;-76
2023/07/11 02:03:58;;;;;;;2.73;1.40;;;22.10;90.00;;;;;;4990664;28;20594;-76
2023/07/11 02:06:23;;;;;;;2.60;1.30;;;22.10;90.80;;;;;;4973117;28;20713;-76
2023/07/11 02:08:49;;;;;;;2.00;0.90;;;22.10;90.70;;;;;;4989912;28;20209;-75
2023/07/11 02:11:15;;;;;;;4.13;1.40;;;22.10;90.80;;;;;;4957656;28;20175;-76
2023/07/11 02:13:41;;;;;;;3.40;1.37;;;22.10;91.30;;;;;;4990391;28;21492;-76
2023/07/11 02:16:07;;;;;;;2.77;1.30;;;22.00;91.10;;;;;;4989632;28;20698;-76
2023/07/11 02:18:34;;;;;;;2.10;1.10;;;22.00;91.20;;;;;;4989814;28;20590;-76
2023/07/11 02:21:00;;;;;;;3.77;1.50;;;22.00;91.40;;;;;;4990164;28;20586;-76
2023/07/11 02:23:27;;;;;;;2.80;1.80;;;22.00;91.80;;;;;;4993728;28;21157;-76
2023/07/11 02:25:54;;;;;;;4.60;1.47;;;22.00;91.90;;;;;;4989777;28;20638;-76
2023/07/11 02:28:22;;;;;;;3.90;1.30;;;22.00;92.00;;;;;;4990988;28;20597;-76
2023/07/11 02:30:48;;;;;;;2.40;1.23;;;21.90;92.40;;;;;;4990102;28;20611;-76
2023/07/11 02:33:14;;;;;;;2.30;1.20;;;21.90;92.50;;;;;;4989439;28;20630;-76
2023/07/11 02:35:41;;;;;;;2.20;1.03;;;21.90;92.80;;;;;;4991514;28;20239;-76
2023/07/11 02:38:07;;;;;;;3.00;1.47;;;21.90;92.80;;;;;;4990171;28;21038;-76
2023/07/11 02:40:33;;;;;;;3.67;1.27;;;21.90;92.90;;;;;;4991229;28;20535;-76
2023/07/11 02:42:59;;;;;;;2.70;1.20;;;21.80;94.10;;;;;;4973117;28;20594;-76
2023/07/11 02:45:24;;;;;;;3.73;1.40;;;21.80;93.70;;;;;;4990866;28;20201;-76
2023/07/11 02:47:50;;;;;;;3.27;1.30;;;21.80;93.90;;;;;;4989431;28;20594;-76
2023/07/11 02:50:16;;;;;;;4.40;1.37;;;21.70;94.40;;;;;;4991235;28;20175;-76
2023/07/11 02:52:44;;;;;;;3.43;1.30;;;21.70;94.80;;;;;;5005716;28;20565;-74
2023/07/11 02:55:10;;;;;;;2.70;1.20;;;21.60;95.00;;;;;;4988936;28;20179;-75
2023/07/11 02:57:40;;;;;;;2.73;1.37;;;21.60;95.50;;;;;;5005918;28;20649;-75
2023/07/11 03:00:08;;;;;;;4.20;1.50;;;21.50;95.30;;;;;;4977895;28;20175;-75
2023/07/11 03:02:34;;;;;;;5.03;1.60;;;21.50;95.30;;;;;;4989630;28;21213;-75
2023/07/11 03:05:00;;;;;;;4.93;1.20;;;21.50;95.30;;;;;;4990655;28;20677;-75
2023/07/11 03:07:26;;;;;;;2.50;1.13;;;21.50;96.20;;;;;;4988211;28;20224;-74
2023/07/11 03:09:52;;;;;;;5.30;1.30;;;21.40;96.60;;;;;;4989330;28;20629;-74
2023/07/11 03:12:18;;;;;;;3.13;1.40;;;21.40;96.20;;;;;;4989321;28;20269;-74
2023/07/11 03:14:43;;;;;;;2.93;1.00;;;21.40;96.30;;;;;;4989202;28;20179;-73
2023/07/11 03:17:09;;;;;;;2.63;1.40;;;21.40;96.50;;;;;;4990439;28;20693;-74
2023/07/11 03:19:35;;;;;;;3.30;1.20;;;21.40;96.90;;;;;;5005938;28;20237;-74
2023/07/11 03:22:00;;;;;;;2.97;1.40;;;21.40;97.20;;;;;;4990304;28;20518;-74
2023/07/11 03:24:26;;;;;;;3.80;1.23;;;21.40;97.00;;;;;;4989560;28;20229;-74
2023/07/11 03:26:52;;;;;;;2.47;1.27;;;21.40;97.60;;;;;;4989746;28;21579;-74
2023/07/11 03:29:18;;;;;;;3.60;1.47;;;21.30;97.70;;;;;;4989454;28;20525;-75
2023/07/11 03:31:44;;;;;;;5.10;1.33;;;21.30;98.20;;;;;;4990471;28;20543;-75
2023/07/11 03:34:09;;;;;;;3.07;1.60;;;21.20;98.80;;;;;;4992473;28;20207;-75
2023/07/11 03:36:35;;;;;;;2.57;1.43;;;21.20;99.00;;;;;;4974861;28;20230;-76
2023/07/11 03:39:01;;;;;;;6.20;2.70;;;21.20;98.80;;;;;;4991257;28;20171;-76
2023/07/11 03:41:27;;;;;;;2.70;1.27;;;21.20;99.30;;;;;;4988887;28;20175;-76
2023/07/11 03:43:52;;;;;;;2.53;1.13;;;21.20;99.00;;;;;;5005708;28;20578;-76
2023/07/11 03:46:18;;;;;;;3.10;1.20;;;21.20;99.30;;;;;;4990086;28;20206;-75
2023/07/11 03:48:44;;;;;;;7.20;1.40;;;21.20;99.80;;;;;;4988266;28;20512;-76
2023/07/11 03:51:09;;;;;;;4.57;1.37;;;21.20;99.90;;;;;;4988813;28;20198;-76
2023/07/11 03:53:36;;;;;;;3.30;1.33;;;21.20;99.70;;;;;;5005061;28;20520;-74
2023/07/11 03:56:02;;;;;;;2.77;1.37;;;21.20;99.90;;;;;;4979701;28;20372;-75
2023/07/11 03:58:28;;;;;;;6.00;1.60;;;21.20;99.90;;;;;;4993949;28;20593;-75
2023/07/11 04:00:54;;;;;;;2.50;1.27;;;21.20;99.90;;;;;;4974220;28;20586;-75
2023/07/11 04:03:20;;;;;;;3.47;1.23;;;21.20;99.90;;;;;;4988340;28;20941;-75
2023/07/11 04:05:46;;;;;;;4.87;1.63;;;21.20;99.90;;;;;;4964374;28;20686;-75
2023/07/11 04:08:11;;;;;;;3.70;1.67;;;21.20;99.90;;;;;;4999810;28;20225;-75
2023/07/11 04:10:37;;;;;;;3.40;1.17;;;21.20;99.90;;;;;;4996382;28;20248;-75
2023/07/11 04:13:03;;;;;;;3.77;1.30;;;21.20;99.90;;;;;;4977855;28;20203;-75
2023/07/11 04:15:29;;;;;;;3.70;1.60;;;21.20;99.90;;;;;;4988491;28;20203;-75
2023/07/11 04:17:54;;;;;;;2.57;1.30;;;21.20;99.90;;;;;;4997707;28;20182;-75
2023/07/11 04:20:20;;;;;;;3.53;1.30;;;21.20;99.90;;;;;;4990679;28;20570;-76
2023/07/11 04:22:46;;;;;;;2.53;1.40;;;21.20;99.90;;;;;;4977244;28;20580;-75
2023/07/11 04:25:11;;;;;;;2.63;1.57;;;21.20;99.90;;;;;;4992472;28;20310;-75
2023/07/11 04:27:37;;;;;;;2.07;1.17;;;21.30;99.90;;;;;;4993306;28;20261;-75
2023/07/11 04:30:07;;;;;;;2.80;1.20;;;21.30;99.90;;;;;;4993473;28;20190;-75
2023/07/11 04:32:32;;;;;;;4.10;1.23;;;21.30;99.90;;;;;;5000115;28;20512;-75
2023/07/11 04:34:58;;;;;;;3.83;1.60;;;21.40;99.90;;;;;;4994131;28;20585;-75
2023/07/11 04:37:24;;;;;;;3.23;1.60;;;21.50;99.90;;;;;;5013143;28;20662;-74
2023/07/11 04:39:50;;;;;;;2.70;1.43;;;21.70;99.90;;;;;;4994899;28;20643;-75
2023/07/11 04:42:16;;;;;;;7.50;2.00;;;21.80;99.90;;;;;;4993779;28;20213;-75
2023/07/11 04:44:42;;;;;;;3.47;1.40;;;21.90;99.90;;;;;;4994016;28;21192;-75
2023/07/11 04:47:09;;;;;;;2.90;1.70;;;21.90;99.90;;;;;;4993130;28;20991;-75
2023/07/11 04:49:35;;;;;;;3.37;1.20;;;22.00;99.90;;;;;;4996307;28;20175;-75
2023/07/11 04:52:01;;;;;;;5.83;1.80;;;22.00;99.90;;;;;;5008472;28;20582;-75
2023/07/11 04:54:27;;;;;;;3.00;1.30;;;22.00;99.90;;;;;;4994029;28;20712;-75
2023/07/11 04:56:58;;;;;;;6.63;2.03;;;22.10;99.90;;;;;;5002288;28;20221;-75
2023/07/11 04:59:24;;;;;;;2.77;1.30;;;22.10;99.90;;;;;;4991805;28;20190;-75
2023/07/11 05:01:50;;;;;;;3.87;1.47;;;22.20;99.90;;;;;;4956801;28;20594;-75
2023/07/11 05:04:16;;;;;;;3.70;1.13;;;22.40;99.90;;;;;;4973865;28;20594;-75
2023/07/11 05:06:42;;;;;;;2.57;1.20;;;22.50;99.90;;;;;;4976687;28;20660;-75
2023/07/11 05:09:07;;;;;;;3.80;1.57;;;22.60;99.90;;;;;;4987777;28;20179;-75
2023/07/11 05:11:35;;;;;;;3.20;1.50;;;22.70;99.90;;;;;;5015062;28;20182;-75
2023/07/11 05:14:01;;;;;;;2.53;1.60;;;22.80;99.90;;;;;;5030899;28;20241;-75
2023/07/11 05:16:28;;;;;;;3.73;1.40;;;22.90;99.90;;;;;;5010976;28;20621;-75
2023/07/11 05:18:56;;;;;;;6.30;1.47;;;23.00;99.90;;;;;;5027719;28;20585;-75
2023/07/11 05:21:22;;;;;;;3.93;1.33;;;23.10;99.90;;;;;;5015939;28;20590;-75
2023/07/11 05:23:48;;;;;;;3.30;1.47;;;23.20;99.90;;;;;;5000763;28;20574;-75
2023/07/11 05:26:14;;;;;;;3.80;1.83;;;23.30;99.90;;;;;;4993400;28;20614;-75
2023/07/11 05:28:40;;;;;;;4.97;1.60;;;23.40;99.90;;;;;;4991248;28;20641;-75
2023/07/11 05:31:07;;;;;;;3.23;1.57;;;23.50;99.90;;;;;;4990798;28;20977;-75
2023/07/11 05:33:34;;;;;;;3.00;1.73;;;23.50;99.90;;;;;;4992313;28;20257;-75
2023/07/11 05:36:32;;;;;;;3.00;1.47;;;23.60;99.90;;;;;;4990523;28;20622;-75
2023/07/11 05:39:07;;;;;;;3.37;1.27;;;23.60;99.90;;;;;;4991305;28;20697;-75
2023/07/11 05:41:35;;;;;;;2.33;1.37;;;23.60;99.90;;;;;;4990772;28;20651;-74
2023/07/11 05:44:01;;;;;;;2.73;1.37;;;23.70;99.90;;;;;;4991010;28;21018;-75
2023/07/11 05:46:27;;;;;;;3.83;1.60;;;23.70;99.90;;;;;;4990605;28;21168;-75
2023/07/11 05:48:56;;;;;;;3.87;1.40;;;23.70;99.90;;;;;;4990832;28;20604;-75
2023/07/11 05:51:22;;;;;;;2.37;1.10;;;23.70;99.90;;;;;;4998754;28;20597;-74
2023/07/11 05:53:48;;;;;;;3.40;1.63;;;23.80;99.90;;;;;;5009149;28;20724;-75
2023/07/11 05:56:15;;;;;;;2.50;1.30;;;23.90;99.90;;;;;;5011220;28;21059;-75
2023/07/11 05:58:43;;;;;;;3.60;1.33;;;24.00;99.90;;;;;;5011035;28;20658;-75
2023/07/11 06:01:15;;;;;;;4.27;1.70;;;24.30;99.90;;;;;;5012353;28;20585;-75
2023/07/11 06:03:41;;;;;;;3.90;1.00;;;24.70;99.90;;;;;;5013192;28;20578;-74
2023/07/11 06:06:11;;;;;;;3.77;1.63;;;25.50;99.90;;;;;;4991838;28;20617;-76
2023/07/11 06:08:36;;;;;;;3.30;1.00;;;26.30;99.90;;;;;;4990035;28;20245;-75
2023/07/11 06:11:04;;;;;;;3.80;1.40;;;26.90;99.90;;;;;;4991892;28;20574;-76
2023/07/11 06:13:30;;;;;;;3.93;2.37;;;27.60;99.90;;;;;;4989887;28;20203;-76
2023/07/11 06:16:16;;;;;;;6.23;1.37;;;28.20;99.00;;;;;;4989577;28;20622;-77
2023/07/11 06:18:42;;;;;;;3.40;1.63;;;28.80;98.40;;;;;;4990942;28;21341;-75
2023/07/11 06:21:10;;;;;;;2.33;1.10;;;29.60;97.30;;;;;;4974168;28;20680;-76
2023/07/11 06:23:36;;;;;;;2.70;1.20;;;30.10;95.90;;;;;;4991275;28;20582;-76
2023/07/11 06:26:03;;;;;;;3.47;1.40;;;30.50;95.10;;;;;;4991417;28;20609;-73
2023/07/11 06:28:30;;;;;;;4.53;1.57;;;31.00;93.60;;;;;;4989233;28;20579;-74
2023/07/11 06:30:59;;;;;;;3.63;1.10;;;31.30;91.80;;;;;;4991498;28;20582;-74
2023/07/11 06:33:25;;;;;;;2.40;1.27;;;31.50;90.60;;;;;;4989889;28;20619;-74
2023/07/11 06:35:51;;;;;;;3.27;1.60;;;31.80;90.50;;;;;;4989758;28;20671;-74
2023/07/11 06:38:18;;;;;;;2.87;1.60;;;32.20;87.30;;;;;;4991659;28;20596;-73
2023/07/11 06:40:51;;;;;;;3.97;1.57;;;32.60;86.40;;;;;;4989759;28;20599;-73
2023/07/11 06:43:19;;;;;;;1.97;1.10;;;32.90;82.80;;;;;;4973258;28;20658;-73
2023/07/11 06:45:49;;;;;;;2.00;1.20;;;33.50;81.00;;;;;;4989583;28;20625;-73
2023/07/11 06:48:16;;;;;;;3.10;1.13;;;33.70;78.90;;;;;;4990132;28;20586;-73
2023/07/11 06:50:45;;;;;;;2.50;1.23;;;34.10;76.70;;;;;;4974550;28;20582;-73
2023/07/11 06:53:11;;;;;;;2.77;1.20;;;34.50;74.60;;;;;;4991290;28;20645;-74
2023/07/11 06:55:37;;;;;;;2.53;1.20;;;34.70;72.90;;;;;;4993415;28;20618;-73
2023/07/11 06:58:03;;;;;;;4.60;1.20;;;34.80;72.30;;;;;;4989513;28;20181;-75
2023/07/11 07:00:29;;;;;;;3.80;1.20;;;35.10;70.70;;;;;;4990043;28;20579;-74
2023/07/11 07:02:55;;;;;;;3.37;1.60;;;35.40;69.10;;;;;;4989575;28;20594;-75
2023/07/11 07:05:21;;;;;;;2.30;1.10;;;35.70;66.90;;;;;;4974233;28;20614;-75
2023/07/11 07:07:47;;;;;;;3.57;1.43;;;35.80;65.50;;;;;;4990910;28;20632;-75
2023/07/11 07:10:12;;;;;;;2.43;1.20;;;35.90;63.50;;;;;;4990364;28;20190;-75
2023/07/11 07:12:38;;;;;;;6.47;1.27;;;36.00;62.80;;;;;;4990123;28;20226;-75
2023/07/11 07:15:04;;;;;;;2.70;1.43;;;36.10;61.60;;;;;;4992743;28;20579;-75
2023/07/11 07:17:30;;;;;;;2.20;1.07;;;36.20;60.10;;;;;;4989982;28;20265;-75
2023/07/11 07:19:56;;;;;;;4.03;1.30;;;36.30;59.60;;;;;;4974299;28;20677;-75
2023/07/11 07:22:21;;;;;;;3.67;1.60;;;36.50;59.30;;;;;;4991290;28;20159;-75
2023/07/11 07:24:47;;;;;;;3.03;1.20;;;36.70;57.80;;;;;;4973896;28;20255;-75
2023/07/11 07:27:12;;;;;;;2.47;1.13;;;36.50;56.90;;;;;;4989622;28;20543;-75
2023/07/11 07:29:38;;;;;;;2.60;1.37;;;36.50;57.30;;;;;;4991348;28;20178;-75
2023/07/11 07:32:04;;;;;;;2.03;1.17;;;36.80;57.30;;;;;;4991093;28;20177;-76
2023/07/11 07:34:31;;;;;;;3.50;1.30;;;37.10;57.00;;;;;;4990010;28;20215;-75
2023/07/11 07:36:56;;;;;;;2.10;1.00;;;37.30;56.10;;;;;;4990985;28;20679;-75
2023/07/11 07:39:22;;;;;;;4.40;1.13;;;37.70;55.90;;;;;;4989347;28;20602;-75
2023/07/11 07:41:48;;;;;;;3.00;1.27;;;38.10;55.60;;;;;;4990892;28;20172;-74
2023/07/11 07:44:13;;;;;;;3.83;1.03;;;38.70;55.30;;;;;;4989714;28;20516;-75
2023/07/11 07:46:39;;;;;;;2.70;1.17;;;39.40;54.50;;;;;;4990273;28;20234;-75
2023/07/11 07:49:05;;;;;;;1.80;0.90;;;39.80;53.50;;;;;;4973689;28;20194;-75
2023/07/11 07:51:30;;;;;;;3.23;1.17;;;40.30;52.90;;;;;;4995539;28;20175;-75
2023/07/11 07:53:56;;;;;;;2.70;1.60;;;40.60;51.50;;;;;;4991603;28;20716;-75
2023/07/11 07:56:23;;;;;;;2.60;1.10;;;40.90;50.10;;;;;;4976634;28;20225;-75
2023/07/11 07:58:50;;;;;;;1.80;1.03;;;41.00;48.20;;;;;;4993237;28;20175;-75
2023/07/11 08:01:18;;;;;;;3.03;1.20;;;41.00;48.00;;;;;;4994088;28;20579;-74
2023/07/11 08:03:44;;;;;;;3.37;1.00;;;41.20;46.90;;;;;;4993088;28;21141;-75
2023/07/11 08:06:12;;;;;;;3.67;1.33;;;41.20;46.50;;;;;;4993358;28;20617;-75
2023/07/11 08:08:39;;;;;;;2.33;1.47;;;41.50;46.40;;;;;;4993585;28;20613;-74
2023/07/11 08:11:06;;;;;;;4.33;1.27;;;41.50;45.80;;;;;;4992369;28;20581;-74
2023/07/11 08:13:34;;;;;;;2.10;1.00;;;41.50;45.30;;;;;;4992901;28;20637;-74
2023/07/11 08:16:01;;;;;;;2.73;1.07;;;41.60;44.50;;;;;;4993540;28;20656;-76
2023/07/11 08:18:28;;;;;;;1.83;1.00;;;41.50;43.90;;;;;;4993619;28;20566;-75
2023/07/11 08:20:54;;;;;;;2.93;1.20;;;41.50;43.50;;;;;;4993874;28;20681;-76
2023/07/11 08:23:20;;;;;;;2.93;1.20;;;41.80;43.70;;;;;;4992386;28;21223;-77
2023/07/11 08:25:55;;;;;;;3.37;1.37;;;42.00;43.20;;;;;;5008977;28;20230;-74
2023/07/11 08:28:20;;;;;;;4.00;1.33;;;42.20;43.10;;;;;;4976633;28;20245;-75
2023/07/11 08:30:46;;;;;;;2.70;1.07;;;42.80;43.20;;;;;;4992502;28;20582;-75
2023/07/11 08:33:12;;;;;;;1.93;1.20;;;43.20;42.20;;;;;;4975656;28;20218;-74
2023/07/11 08:35:37;;;;;;;4.40;1.30;;;43.50;41.90;;;;;;4993401;28;20888;-75
2023/07/11 08:38:06;;;;;;;1.87;1.07;;;43.80;40.70;;;;;;4992357;28;20217;-75
2023/07/11 08:40:38;;;;;;;2.80;1.20;;;44.20;40.50;;;;;;4993778;28;20254;-75
2023/07/11 08:43:05;;;;;;;2.20;0.90;;;44.60;40.10;;;;;;4992917;28;20932;-75
2023/07/11 08:45:38;;;;;;;2.53;1.17;;;44.90;39.40;;;;;;4975554;28;20614;-75
2023/07/11 08:48:33;;;;;;;3.83;1.07;;;45.30;38.70;;;;;;4992242;28;20602;-75
2023/07/11 08:51:17;;;;;;;3.40;1.47;;;45.50;38.00;;;;;;4975790;28;20636;-75
2023/07/11 08:53:50;;;;;;;3.20;1.00;;;45.70;37.90;;;;;;4992792;28;20618;-77
2023/07/11 08:56:36;;;;;;;2.67;1.20;;;45.90;37.30;;;;;;4992860;28;20630;-76
2023/07/11 08:59:08;;;;;;;3.00;1.20;;;46.10;36.60;;;;;;4991490;28;20948;-74
2023/07/11 09:01:51;;;;;;;2.13;0.87;;;46.40;35.80;;;;;;4975682;28;20586;-76
2023/07/11 09:04:22;;;;;;;3.83;1.20;;;46.70;35.40;;;;;;4976241;28;20598;-75
2023/07/11 09:06:54;;;;;;;3.20;1.20;;;47.10;34.50;;;;;;4989806;28;20621;-74
2023/07/11 09:09:20;;;;;;;4.13;1.10;;;47.30;33.70;;;;;;4991063;28;20647;-78
2023/07/11 09:11:54;;;;;;;2.67;1.00;;;47.30;33.10;;;;;;4992443;28;20569;-78
2023/07/11 09:14:32;;;;;;;2.17;1.13;;;47.40;32.80;;;;;;4991161;28;20517;-76
2023/07/11 09:17:21;;;;;;;1.90;0.93;;;47.60;33.00;;;;;;4990152;28;21047;-76
2023/07/11 09:20:24;;;;;;;1.90;0.90;;;47.70;32.90;;;;;;4991846;28;20635;-77
2023/07/11 09:23:14;;;;;;;3.00;1.37;;;47.70;33.20;;;;;;4981088;28;20697;-76
2023/07/11 09:25:43;;;;;;;3.20;1.37;;;47.70;32.50;;;;;;4991966;28;20590;-76
2023/07/11 09:28:09;;;;;;;2.93;1.00;;;47.60;31.70;;;;;;4981357;28;20619;-76
2023/07/11 09:31:00;;;;;;;2.30;1.27;;;47.60;31.70;;;;;;4991432;28;21120;-76
2023/07/11 09:33:38;;;;;;;2.43;0.90;;;47.70;32.10;;;;;;4982365;28;20258;-76
2023/07/11 09:36:27;;;;;;;2.03;0.90;;;47.60;31.20;;;;;;4990754;28;20641;-76
2023/07/11 09:39:13;;;;;;;3.37;0.90;;;47.60;30.50;;;;;;4990399;28;20617;-76
2023/07/11 09:41:45;;;;;;;2.73;1.10;;;47.70;30.80;;;;;;4992744;28;20608;-77
2023/07/11 09:44:11;;;;;;;2.40;1.10;;;47.60;30.00;;;;;;4989381;28;20725;-75
2023/07/11 09:46:37;;;;;;;2.70;1.67;;;47.60;30.60;;;;;;4993183;28;21198;-75
2023/07/11 09:49:07;;;;;;;2.13;1.13;;;47.60;30.40;;;;;;4984587;28;20601;-75
2023/07/11 09:51:41;;;;;;;1.73;0.90;;;47.60;30.00;;;;;;4991507;28;20190;-76
2023/07/11 09:54:18;;;;;;;1.63;1.00;;;47.60;29.60;;;;;;4989919;28;21288;-76
2023/07/11 09:56:47;;;;;;;2.50;0.90;;;47.60;29.40;;;;;;4989660;28;20634;-75
2023/07/11 09:59:13;;;;;;;2.07;1.20;;;47.50;29.40;;;;;;4990011;28;20602;-75
2023/07/11 10:01:39;;;;;;;2.23;1.10;;;47.50;29.30;;;;;;4990719;28;20598;-75
2023/07/11 10:04:15;;;;;;;2.47;1.50;;;47.30;28.90;;;;;;4991057;28;21195;-74
2023/07/11 10:07:03;;;;;;;2.10;1.27;;;47.20;29.30;;;;;;4973148;28;20732;-75
2023/07/11 10:09:32;;;;;;;3.20;1.40;;;47.20;29.30;;;;;;4989382;28;20672;-75
2023/07/11 10:12:15;;;;;;;4.03;1.07;;;47.20;29.10;;;;;;4991144;28;20578;-75
2023/07/11 10:14:44;;;;;;;2.33;1.30;;;47.20;29.10;;;;;;4991014;28;21327;-76
2023/07/11 10:17:32;;;;;;;1.70;1.17;;;47.10;28.60;;;;;;4992234;28;20625;-75
2023/07/11 10:20:00;;;;;;;2.90;1.10;;;46.70;28.30;;;;;;4989489;28;20598;-75
2023/07/11 10:22:29;;;;;;;3.80;1.20;;;46.50;28.50;;;;;;4989542;28;20593;-75
2023/07/11 10:25:19;;;;;;;2.10;1.10;;;46.40;28.60;;;;;;4990947;28;20992;-76
2023/07/11 10:28:13;;;;;;;2.53;1.17;;;46.30;28.70;;;;;;4989275;28;20572;-77
2023/07/11 10:30:40;;;;;;;2.73;1.30;;;46.40;28.80;;;;;;4989905;28;20602;-75
2023/07/11 10:33:19;;;;;;;2.67;1.33;;;46.50;29.10;;;;;;4989024;28;20590;-75
2023/07/11 10:35:50;;;;;;;4.30;3.10;;;46.60;28.90;;;;;;4989225;28;21026;-75
2023/07/11 10:38:23;;;;;;;3.43;2.17;;;46.80;28.90;;;;;;4989901;28;20590;-75
2023/07/11 10:40:51;;;;;;;3.30;1.50;;;46.80;28.90;;;;;;4989908;28;20594;-75
2023/07/11 10:43:26;;;;;;;5.37;1.60;;;46.90;29.10;;;;;;4990411;28;20621;-75
2023/07/11 10:46:00;;;;;;;2.13;1.20;;;47.10;28.60;;;;;;4985990;28;20665;-77
2023/07/11 10:48:32;;;;;;;2.60;1.37;;;47.10;28.30;;;;;;4953442;28;20597;-75
2023/07/11 10:51:01;;;;;;;1.70;1.10;;;47.00;28.20;;;;;;4970394;28;20583;-76
2023/07/11 10:53:55;;;;;;;2.60;1.47;;;46.80;27.90;;;;;;4972502;28;20594;-77
2023/07/11 10:56:22;;;;;;;3.57;1.40;;;46.70;27.80;;;;;;4978154;28;21087;-76
2023/07/11 10:58:48;;;;;;;2.50;1.10;;;46.50;28.10;;;;;;4989935;28;20693;-76
2023/07/11 11:01:42;;;;;;;3.30;1.47;;;46.30;27.90;;;;;;4989107;28;20681;-76
2023/07/11 11:04:29;;;;;;;2.20;1.17;;;46.20;27.90;;;;;;4988604;28;20202;-76
2023/07/11 11:07:09;;;;;;;2.20;1.33;;;46.10;28.10;;;;;;4988738;28;20691;-77
2023/07/11 11:09:53;;;;;;;2.50;1.30;;;46.10;28.00;;;;;;4988724;28;20601;-77
2023/07/11 11:12:37;;;;;;;2.20;1.43;;;46.10;27.80;;;;;;4988005;28;20605;-77
2023/07/11 11:15:12;;;;;;;2.57;1.30;;;46.00;27.90;;;;;;4988179;28;20606;-75
2023/07/11 11:18:04;;;;;;;4.23;1.20;;;46.00;27.90;;;;;;4989486;28;20581;-75
2023/07/11 11:20:53;;;;;;;2.47;1.33;;;45.90;27.30;;;;;;4956417;28;20589;-76
2023/07/11 11:23:39;;;;;;;2.20;1.27;;;45.90;27.80;;;;;;4990208;28;20622;-75
2023/07/11 11:26:07;;;;;;;4.63;1.63;;;45.90;27.70;;;;;;4972319;28;20648;-76
2023/07/11 11:29:00;;;;;;;2.53;1.30;;;45.80;27.50;;;;;;4990931;28;20562;-75
2023/07/11 11:31:29;;;;;;;2.20;1.37;;;45.80;27.50;;;;;;4992746;28;20590;-76
2023/07/11 11:34:20;;;;;;;6.77;1.80;;;45.70;27.60;;;;;;4994520;28;20641;-75
2023/07/11 11:37:11;;;;;;;2.00;1.40;;;45.70;27.50;;;;;;4992382;28;20626;-76
2023/07/11 11:39:50;;;;;;;2.20;1.40;;;45.70;27.50;;;;;;4999035;28;20637;-76
2023/07/11 11:42:22;;;;;;;2.53;1.50;;;45.60;27.20;;;;;;4998446;28;20607;-76
2023/07/11 11:44:57;;;;;;;2.30;1.70;;;45.50;27.00;;;;;;5001403;28;20638;-77
2023/07/11 11:47:25;;;;;;;2.60;1.93;;;45.40;27.10;;;;;;4997275;28;20688;-75
2023/07/11 11:49:52;;;;;;;2.77;1.80;;;45.20;26.90;;;;;;5011011;28;20592;-75
2023/07/11 11:52:19;;;;;;;3.00;1.40;;;45.10;27.00;;;;;;5011974;28;20695;-75
2023/07/11 11:54:47;;;;;;;5.40;1.70;;;45.10;27.10;;;;;;5011470;28;20593;-76
2023/07/11 11:57:33;;;;;;;4.13;2.10;;;44.80;27.00;;;;;;5011038;28;20998;-75
2023/07/11 12:00:00;;;;;;;2.57;2.00;;;44.60;27.20;;;;;;4992200;28;20954;-75
2023/07/11 12:02:38;;;;;;;4.60;1.90;;;44.50;27.20;;;;;;5000389;28;20578;-76
2023/07/11 12:05:17;;;;;;;2.90;2.00;;;44.40;27.30;;;;;;5013961;28;20597;-75
2023/07/11 12:07:44;;;;;;;3.40;1.90;;;44.30;27.50;;;;;;5013161;28;20918;-77
2023/07/11 12:10:14;;;;;;;2.37;1.50;;;44.10;27.20;;;;;;4995406;28;20579;-75
2023/07/11 12:12:40;;;;;;;2.97;1.80;;;43.90;27.30;;;;;;5011858;28;20617;-75
2023/07/11 12:15:12;;;;;;;2.00;1.40;;;43.80;27.20;;;;;;5011381;28;20573;-75
2023/07/11 12:17:38;;;;;;;3.60;1.73;;;43.50;27.20;;;;;;4995000;28;21132;-75
2023/07/11 12:20:07;;;;;;;2.60;1.90;;;43.30;27.50;;;;;;5013415;28;20600;-75
2023/07/11 12:22:38;;;;;;;2.13;1.90;;;43.20;27.50;;;;;;5012596;28;20648;-75
2023/07/11 12:25:07;;;;;;;3.03;2.13;;;43.00;27.30;;;;;;5012938;28;20696;-75
2023/07/11 12:27:33;;;;;;;2.17;1.83;;;42.90;27.20;;;;;;5011892;28;20573;-76
2023/07/11 12:30:01;;;;;;;2.70;2.30;;;42.70;27.30;;;;;;5012341;28;20727;-76
2023/07/11 12:32:33;;;;;;;3.20;2.20;;;42.40;27.20;;;;;;5006078;28;20263;-75
2023/07/11 12:35:05;;;;;;;2.73;2.30;;;42.20;27.30;;;;;;5010193;28;20676;-75
2023/07/11 12:38:00;;;;;;;3.37;2.40;;;42.10;27.60;;;;;;5011172;28;21326;-76
2023/07/11 12:40:48;;;;;;;3.63;2.20;;;41.80;27.10;;;;;;4972774;28;20570;-75
2023/07/11 12:43:19;;;;;;;4.07;2.33;;;41.40;27.30;;;;;;4974178;28;20630;-76
2023/07/11 12:45:56;;;;;;;2.60;2.27;;;41.30;27.40;;;;;;4992402;28;20626;-75
2023/07/11 12:48:31;;;;;;;3.20;2.60;;;41.10;27.50;;;;;;4991784;28;20605;-76
2023/07/11 12:51:03;;;;;;;3.17;2.30;;;40.90;27.40;;;;;;4992718;28;20620;-75
2023/07/11 12:53:34;;;;;;;3.67;2.43;;;40.70;27.30;;;;;;4992150;28;20637;-75
2023/07/11 12:56:00;;;;;;;2.67;2.47;;;40.40;27.30;;;;;;4991560;28;20641;-74
2023/07/11 12:58:30;;;;;;;3.67;2.90;;;40.10;27.50;;;;;;4992783;28;20677;-74
2023/07/11 13:00:58;;;;;;;2.67;2.13;;;39.90;27.30;;;;;;4992604;28;20657;-74